createdAt,value
2023-05-06T00:00:22.376Z,9.30
2023-05-06T00:02:50.232Z,9.40
2023-05-06T00:05:19.969Z,9.30
2023-05-06T00:07:48.029Z,9.30
2023-05-06T00:10:16.001Z,9.40
2023-05-06T00:12:43.908Z,9.30
2023-05-06T00:15:12.563Z,9.40
2023-05-06T00:17:40.697Z,9.20
2023-05-06T00:20:10.482Z,9.30
2023-05-06T00:22:39.935Z,9.10
2023-05-06T00:25:08.694Z,9.20
2023-05-06T00:27:36.724Z,9.20
2023-05-06T00:30:05.130Z,9.30
2023-05-06T00:32:33.266Z,9.10
2023-05-06T00:35:01.176Z,9.10
2023-05-06T00:37:29.222Z,9.20
2023-05-06T00:39:59.190Z,9.20
2023-05-06T00:42:27.207Z,9.20
2023-05-06T00:44:55.303Z,9.20
2023-05-06T00:47:23.858Z,9.20
2023-05-06T00:49:52.497Z,9.20
2023-05-06T00:52:21.668Z,9.10
2023-05-06T00:54:50.125Z,9.10
2023-05-06T00:57:19.448Z,9.30
2023-05-06T00:59:47.320Z,9.00
2023-05-06T01:02:15.183Z,9.20
2023-05-06T01:04:43.389Z,9.20
2023-05-06T01:07:22.220Z,9.30
2023-05-06T01:09:56.218Z,9.30
2023-05-06T01:12:32.164Z,9.20
2023-05-06T01:15:08.846Z,9.30
2023-05-06T01:17:38.756Z,9.50
2023-05-06T01:20:10.745Z,9.40
2023-05-06T01:22:39.545Z,9.30
2023-05-06T01:27:45.262Z,9.40
2023-05-06T01:30:14.815Z,9.20
2023-05-06T01:32:54.254Z,9.30
2023-05-06T01:35:27.013Z,9.20
2023-05-06T01:38:04.860Z,9.10
2023-05-06T01:40:35.102Z,9.10
2023-05-06T01:43:06.788Z,9.10
2023-05-06T01:45:37.386Z,9.10
2023-05-06T01:48:06.689Z,9.00
2023-05-06T01:50:35.009Z,9.00
2023-05-06T01:53:04.448Z,9.00
2023-05-06T01:55:32.739Z,9.00
2023-05-06T01:58:01.007Z,8.90
2023-05-06T02:00:31.523Z,8.90
2023-05-06T02:02:59.655Z,8.90
2023-05-06T02:05:27.913Z,8.80
2023-05-06T02:07:55.781Z,9.00
2023-05-06T02:10:23.886Z,8.80
2023-05-06T02:12:52.161Z,8.80
2023-05-06T02:15:20.349Z,8.70
2023-05-06T02:17:49.811Z,8.60
2023-05-06T02:20:17.854Z,8.50
2023-05-06T02:22:45.938Z,8.60
2023-05-06T02:25:13.815Z,8.60
2023-05-06T02:27:41.693Z,8.40
2023-05-06T02:30:10.657Z,8.50
2023-05-06T02:32:38.845Z,8.40
2023-05-06T02:35:10.353Z,8.50
2023-05-06T02:37:38.682Z,8.50
2023-05-06T02:40:07.854Z,8.50
2023-05-06T02:42:36.102Z,8.30
2023-05-06T02:45:04.456Z,8.50
2023-05-06T02:47:32.583Z,8.50
2023-05-06T02:50:00.738Z,8.40
2023-05-06T02:52:30.096Z,8.40
2023-05-06T02:54:58.211Z,8.20
2023-05-06T02:57:26.432Z,8.30
2023-05-06T02:59:54.338Z,8.20
2023-05-06T03:02:22.460Z,8.10
2023-05-06T03:04:50.913Z,8.00
2023-05-06T03:07:19.013Z,8.00
2023-05-06T03:09:48.409Z,8.00
2023-05-06T03:12:16.660Z,8.00
2023-05-06T03:14:44.727Z,7.80
2023-05-06T03:17:12.842Z,7.90
2023-05-06T03:19:40.983Z,8.00
2023-05-06T03:22:09.380Z,7.80
2023-05-06T03:24:37.245Z,7.90
2023-05-06T03:27:06.851Z,8.00
2023-05-06T03:29:34.945Z,7.90
2023-05-06T03:32:04.833Z,8.00
2023-05-06T03:34:32.983Z,7.80
2023-05-06T03:37:01.153Z,8.00
2023-05-06T03:39:29.057Z,8.00
2023-05-06T03:41:57.114Z,8.00
2023-05-06T03:44:26.758Z,8.00
2023-05-06T03:46:54.634Z,7.90
2023-05-06T03:49:22.771Z,7.80
2023-05-06T03:51:50.981Z,7.90
2023-05-06T03:54:19.215Z,7.90
2023-05-06T03:56:47.091Z,7.80
2023-05-06T03:59:15.130Z,7.90
2023-05-06T04:01:44.567Z,7.90
2023-05-06T04:04:12.725Z,7.80
2023-05-06T04:06:40.947Z,7.80
2023-05-06T04:09:09.542Z,7.70
2023-05-06T04:11:37.376Z,7.70
2023-05-06T04:14:05.604Z,7.70
2023-05-06T04:16:33.727Z,7.70
2023-05-06T04:19:06.251Z,7.60
2023-05-06T04:21:34.807Z,7.70
2023-05-06T04:24:02.907Z,7.70
2023-05-06T04:26:31.400Z,7.80
2023-05-06T04:28:59.518Z,7.90
2023-05-06T04:31:29.841Z,7.90
2023-05-06T04:33:58.249Z,7.90
2023-05-06T04:36:28.337Z,8.10
2023-05-06T04:38:57.240Z,8.00
2023-05-06T04:41:25.867Z,8.10
2023-05-06T04:43:54.117Z,8.20
2023-05-06T04:46:23.033Z,8.20
2023-05-06T04:48:51.122Z,8.20
2023-05-06T04:51:19.284Z,8.50
2023-05-06T04:53:48.746Z,8.60
2023-05-06T04:56:16.771Z,8.60
2023-05-06T04:58:44.821Z,8.70
2023-05-06T05:01:12.948Z,8.50
2023-05-06T05:03:41.280Z,8.70
2023-05-06T05:06:09.957Z,8.90
2023-05-06T05:08:37.982Z,9.00
2023-05-06T05:11:08.832Z,8.90
2023-05-06T05:13:36.923Z,9.00
2023-05-06T05:16:05.201Z,9.00
2023-05-06T05:18:33.079Z,9.30
2023-05-06T05:21:01.148Z,9.40
2023-05-06T05:23:29.349Z,9.50
2023-05-06T05:25:57.450Z,9.50
2023-05-06T05:28:26.767Z,9.60
2023-05-06T05:30:54.826Z,9.70
2023-05-06T05:33:22.912Z,9.80
2023-05-06T05:35:50.788Z,10.00
2023-05-06T05:38:18.781Z,10.00
2023-05-06T05:40:46.976Z,10.20
2023-05-06T05:43:15.005Z,10.20
2023-05-06T05:45:44.479Z,10.40
2023-05-06T05:48:12.811Z,10.50
2023-05-06T05:50:41.037Z,10.60
2023-05-06T05:53:09.019Z,10.60
2023-05-06T05:55:37.228Z,10.80
2023-05-06T05:58:05.333Z,10.90
2023-05-06T06:00:33.405Z,10.90
2023-05-06T06:03:02.922Z,11.10
2023-05-06T06:05:31.023Z,11.20
2023-05-06T06:08:02.244Z,11.30
2023-05-06T06:10:31.675Z,11.40
2023-05-06T06:12:59.788Z,11.60
2023-05-06T06:15:27.908Z,11.90
2023-05-06T06:17:56.000Z,11.90
2023-05-06T06:20:25.749Z,12.10
2023-05-06T06:22:53.819Z,12.10
2023-05-06T06:25:22.418Z,12.20
2023-05-06T06:27:50.336Z,12.40
2023-05-06T06:30:18.652Z,12.60
2023-05-06T06:32:50.301Z,12.80
2023-05-06T06:35:20.002Z,12.90
2023-05-06T06:37:49.785Z,12.90
2023-05-06T06:40:18.217Z,13.10
2023-05-06T06:42:48.554Z,13.30
2023-05-06T06:45:16.928Z,13.40
2023-05-06T06:47:45.458Z,13.50
2023-05-06T06:50:13.950Z,13.60
2023-05-06T06:52:42.211Z,13.60
2023-05-06T06:55:12.442Z,13.70
2023-05-06T06:57:42.509Z,13.90
2023-05-06T07:00:12.011Z,14.00
2023-05-06T07:02:40.181Z,14.10
2023-05-06T07:05:08.878Z,14.20
2023-05-06T07:07:37.149Z,14.30
2023-05-06T07:10:05.834Z,14.40
2023-05-06T07:12:35.318Z,14.40
2023-05-06T07:15:06.856Z,14.50
2023-05-06T07:17:35.293Z,14.50
2023-05-06T07:20:03.712Z,14.50
2023-05-06T07:22:31.891Z,14.50
2023-05-06T07:25:00.765Z,14.60
2023-05-06T07:27:30.356Z,14.70
2023-05-06T07:48:06.202Z,15.30
2023-05-06T07:50:34.337Z,15.50
2023-05-06T07:53:02.480Z,15.40
2023-05-06T07:55:32.338Z,15.30
2023-05-06T07:58:01.759Z,15.40
2023-05-06T08:00:29.686Z,15.50
2023-05-06T08:02:57.653Z,15.60
2023-05-06T08:05:27.157Z,15.70
2023-05-06T08:07:55.718Z,15.80
2023-05-06T08:10:23.911Z,16.00
2023-05-06T08:12:52.121Z,15.90
2023-05-06T08:15:20.445Z,15.90
2023-05-06T08:17:48.470Z,16.00
2023-05-06T08:20:16.625Z,16.10
2023-05-06T08:22:46.864Z,16.00
2023-05-06T08:25:16.039Z,15.90
2023-05-06T08:27:44.263Z,16.00
2023-05-06T08:30:13.621Z,16.00
2023-05-06T08:32:41.646Z,16.10
2023-05-06T08:35:10.408Z,16.30
2023-05-06T08:37:38.668Z,16.70
2023-05-06T08:40:20.632Z,17.10
2023-05-06T08:42:50.257Z,17.30
2023-05-06T08:45:18.998Z,17.50
2023-05-06T08:47:48.151Z,17.80
2023-05-06T08:50:17.076Z,17.90
2023-05-06T08:52:46.164Z,18.10
2023-05-06T08:55:15.590Z,18.10
2023-05-06T08:57:46.466Z,18.30
2023-05-06T09:00:15.693Z,18.40
2023-05-06T09:02:44.232Z,18.40
2023-05-06T09:05:12.626Z,18.40
2023-05-06T09:07:40.866Z,18.50
2023-05-06T09:10:14.011Z,18.50
2023-05-06T09:12:43.537Z,18.40
2023-05-06T09:15:12.469Z,18.40
2023-05-06T09:17:40.827Z,18.50
2023-05-06T09:20:13.435Z,18.50
2023-05-06T09:22:42.314Z,18.50
2023-05-06T09:25:12.152Z,18.40
2023-05-06T09:27:40.964Z,18.40
2023-05-06T09:30:13.006Z,18.60
2023-05-06T09:32:41.727Z,18.70
2023-05-06T09:35:11.624Z,18.90
2023-05-06T09:37:41.041Z,19.00
2023-05-06T09:40:11.197Z,19.20
2023-05-06T09:42:39.750Z,19.40
2023-05-06T09:45:11.723Z,19.80
2023-05-06T09:47:40.603Z,19.90
2023-05-06T09:50:11.505Z,20.00
2023-05-06T09:52:39.697Z,20.30
2023-05-06T09:55:08.618Z,20.40
2023-05-06T09:57:38.230Z,20.60
2023-05-06T10:00:11.949Z,20.60
2023-05-06T10:02:42.637Z,20.70
2023-05-06T10:05:12.655Z,20.80
2023-05-06T10:07:42.499Z,20.90
2023-05-06T10:10:12.123Z,21.10
2023-05-06T10:12:40.792Z,21.40
2023-05-06T10:15:10.499Z,21.30
2023-05-06T10:17:42.608Z,21.30
2023-05-06T10:20:14.131Z,21.40
2023-05-06T10:22:52.592Z,21.50
2023-05-06T10:25:31.370Z,21.60
2023-05-06T10:28:01.375Z,21.70
2023-05-06T10:30:31.246Z,21.90
2023-05-06T10:33:05.992Z,21.90
2023-05-06T10:35:44.043Z,22.10
2023-05-06T10:38:16.265Z,22.10
2023-05-06T10:40:45.044Z,21.80
2023-05-06T10:43:25.127Z,21.60
2023-05-06T10:46:01.257Z,21.30
2023-05-06T10:48:31.646Z,21.20
2023-05-06T10:51:25.996Z,21.40
2023-05-06T10:53:59.382Z,21.30
2023-05-06T10:56:28.193Z,21.40
2023-05-06T10:58:56.788Z,21.30
2023-05-06T11:01:28.068Z,21.10
2023-05-06T11:03:57.616Z,20.90
2023-05-06T11:06:36.595Z,20.90
2023-05-06T11:09:05.933Z,20.90
2023-05-06T11:11:51.816Z,20.90
2023-05-06T11:14:34.723Z,21.00
2023-05-06T11:17:05.080Z,21.20
2023-05-06T11:19:36.335Z,21.50
2023-05-06T11:22:05.960Z,21.80
2023-05-06T11:24:40.822Z,21.90
2023-05-06T11:27:10.173Z,21.90
2023-05-06T11:29:38.720Z,21.70
2023-05-06T11:32:19.611Z,21.80
2023-05-06T11:34:49.297Z,22.10
2023-05-06T11:37:26.058Z,22.20
2023-05-06T11:39:54.324Z,22.10
2023-05-06T11:42:26.696Z,22.00
2023-05-06T11:44:56.103Z,22.00
2023-05-06T11:47:24.868Z,22.00
2023-05-06T11:49:56.067Z,22.00
2023-05-06T11:52:23.984Z,22.00
2023-05-06T11:54:53.618Z,21.90
2023-05-06T11:57:22.116Z,21.90
2023-05-06T11:59:55.445Z,21.90
2023-05-06T12:02:23.712Z,21.70
2023-05-06T12:04:53.545Z,21.70
2023-05-06T12:07:21.703Z,21.70
2023-05-06T12:09:51.338Z,21.60
2023-05-06T12:12:22.303Z,21.60
2023-05-06T12:14:51.693Z,21.60
2023-05-06T12:17:20.322Z,21.50
2023-05-06T12:19:48.459Z,21.60
2023-05-06T12:22:19.392Z,21.50
2023-05-06T12:24:47.640Z,21.60
2023-05-06T12:27:16.028Z,21.60
2023-05-06T12:29:53.814Z,21.60
2023-05-06T12:32:22.163Z,21.60
2023-05-06T12:34:50.240Z,21.60
2023-05-06T12:37:28.462Z,21.40
2023-05-06T12:40:07.784Z,21.40
2023-05-06T12:42:35.857Z,21.30
2023-05-06T12:45:15.643Z,21.30
2023-05-06T12:47:54.004Z,21.30
2023-05-06T12:50:37.542Z,21.30
2023-05-06T12:53:08.273Z,21.40
2023-05-06T12:55:39.426Z,21.50
2023-05-06T12:58:16.820Z,21.40
2023-05-06T13:00:44.923Z,21.60
2023-05-06T13:03:14.100Z,21.60
2023-05-06T13:05:42.411Z,21.70
2023-05-06T13:08:11.860Z,21.90
2023-05-06T13:10:39.823Z,22.10
2023-05-06T13:13:08.038Z,22.00
2023-05-06T13:15:37.311Z,22.10
2023-05-06T13:18:05.964Z,22.10
2023-05-06T13:20:34.713Z,22.30
2023-05-06T13:23:03.438Z,22.50
2023-05-06T13:25:32.936Z,22.80
2023-05-06T13:28:00.997Z,23.10
2023-05-06T13:30:29.094Z,23.40
2023-05-06T13:32:57.056Z,23.20
2023-05-06T13:35:25.144Z,23.00
2023-05-06T13:37:53.207Z,23.10
2023-05-06T13:40:21.604Z,23.20
2023-05-06T13:42:50.942Z,23.40
2023-05-06T13:45:19.520Z,23.40
2023-05-06T13:47:47.465Z,23.50
2023-05-06T13:50:15.493Z,23.50
2023-05-06T13:52:43.696Z,23.40
2023-05-06T13:55:12.114Z,23.60
2023-05-06T13:57:40.569Z,23.60
2023-05-06T14:00:13.342Z,23.90
2023-05-06T14:02:42.100Z,24.00
2023-05-06T14:05:10.900Z,23.90
2023-05-06T14:07:40.536Z,23.90
2023-05-06T14:10:10.123Z,23.80
2023-05-06T14:12:38.204Z,23.80
2023-05-06T14:15:09.992Z,23.90
2023-05-06T14:17:39.392Z,23.60
2023-05-06T14:20:08.928Z,23.40
2023-05-06T14:22:38.412Z,23.10
2023-05-06T14:25:07.323Z,23.10
2023-05-06T14:27:35.693Z,23.20
2023-05-06T14:30:06.678Z,23.10
2023-05-06T14:32:38.471Z,23.20
2023-05-06T14:35:07.719Z,23.20
2023-05-06T14:37:35.617Z,23.30
2023-05-06T14:40:04.471Z,23.30
2023-05-06T14:42:32.634Z,23.30
2023-05-06T14:45:00.733Z,23.30
2023-05-06T14:47:28.656Z,23.30
2023-05-06T14:49:58.105Z,23.40
2023-05-06T14:52:26.092Z,23.40
2023-05-06T14:54:54.141Z,23.40
2023-05-06T14:57:22.628Z,23.40
2023-05-06T14:59:51.690Z,23.30
2023-05-06T15:02:19.545Z,23.20
2023-05-06T15:04:47.625Z,23.20
2023-05-06T15:07:17.101Z,23.20
2023-05-06T15:09:45.481Z,23.20
2023-05-06T15:12:13.686Z,23.20
2023-05-06T15:14:41.554Z,23.10
2023-05-06T15:17:09.466Z,23.00
2023-05-06T15:19:37.960Z,22.80
2023-05-06T15:22:06.113Z,22.70
2023-05-06T15:24:35.846Z,22.50
2023-05-06T15:27:03.957Z,22.30
2023-05-06T15:29:32.022Z,22.20
2023-05-06T15:31:59.970Z,22.30
2023-05-06T15:34:28.108Z,22.40
2023-05-06T15:36:56.325Z,22.30
2023-05-06T15:39:24.579Z,22.30
2023-05-06T15:41:54.130Z,22.40
2023-05-06T15:44:22.040Z,22.50
2023-05-06T15:46:49.923Z,22.70
2023-05-06T15:49:48.813Z,22.70
2023-05-06T15:52:06.168Z,23.10
2023-05-06T15:54:37.535Z,23.30
2023-05-06T15:57:07.592Z,23.30
2023-05-06T15:59:35.656Z,23.00
2023-05-06T16:04:34.713Z,22.30
2023-05-06T16:07:03.375Z,21.80
2023-05-06T16:09:31.471Z,21.40
2023-05-06T16:11:59.546Z,21.20
2023-05-06T16:14:28.962Z,21.10
2023-05-06T16:16:56.978Z,20.90
2023-05-06T16:19:24.940Z,20.60
2023-05-06T16:21:53.292Z,20.60
2023-05-06T16:24:21.405Z,20.20
2023-05-06T16:26:49.550Z,20.00
2023-05-06T16:29:20.583Z,19.90
2023-05-06T16:31:50.565Z,19.70
2023-05-06T16:34:18.599Z,19.70
2023-05-06T16:36:46.790Z,19.60
2023-05-06T16:39:15.189Z,19.50
2023-05-06T16:41:43.383Z,19.40
2023-05-06T16:44:11.390Z,19.40
2023-05-06T16:46:39.488Z,19.20
2023-05-06T16:49:09.647Z,19.10
2023-05-06T16:51:37.525Z,19.10
2023-05-06T16:54:05.564Z,19.20
2023-05-06T16:56:48.125Z,19.20
2023-05-06T16:59:21.961Z,19.20
2023-05-06T17:01:50.671Z,19.30
2023-05-06T17:04:20.217Z,19.30
2023-05-06T17:06:48.255Z,19.30
2023-05-06T17:09:16.975Z,19.40
2023-05-06T17:11:45.274Z,19.30
2023-05-06T17:14:13.677Z,19.10
2023-05-06T17:16:43.067Z,19.20
2023-05-06T17:19:11.686Z,19.10
2023-05-06T17:21:41.020Z,18.90
2023-05-06T17:24:09.096Z,18.90
2023-05-06T17:26:38.486Z,18.80
2023-05-06T17:29:06.734Z,18.70
2023-05-06T17:31:34.561Z,18.70
2023-05-06T17:34:02.564Z,18.60
2023-05-06T17:36:31.142Z,18.60
2023-05-06T17:39:06.299Z,18.60
2023-05-06T17:41:34.413Z,18.50
2023-05-06T17:44:02.702Z,18.50
2023-05-06T17:46:31.367Z,18.50
2023-05-06T17:48:59.279Z,18.50
2023-05-06T17:51:27.546Z,18.50
2023-05-06T17:53:55.772Z,18.50
2023-05-06T17:56:24.972Z,18.40
2023-05-06T17:58:52.875Z,18.40
2023-05-06T18:01:21.183Z,18.40
2023-05-06T18:03:49.181Z,18.50
2023-05-06T18:06:17.417Z,18.40
2023-05-06T18:08:45.440Z,18.40
2023-05-06T18:11:13.556Z,18.30
2023-05-06T18:13:42.834Z,18.30
2023-05-06T18:16:10.654Z,18.20
2023-05-06T18:18:38.537Z,18.10
2023-05-06T18:21:06.653Z,18.10
2023-05-06T18:23:34.622Z,18.10
2023-05-06T18:26:04.948Z,18.10
2023-05-06T18:28:32.953Z,17.90
2023-05-06T18:31:02.388Z,17.90
2023-05-06T18:33:30.291Z,17.90
2023-05-06T18:35:58.541Z,17.80
2023-05-06T18:38:28.505Z,17.70
2023-05-06T18:40:56.380Z,17.80
2023-05-06T18:43:24.267Z,17.70
2023-05-06T18:45:53.820Z,17.60
2023-05-06T18:48:23.155Z,17.60
2023-05-06T18:50:53.757Z,17.60
2023-05-06T18:53:22.038Z,17.50
2023-05-06T18:55:51.019Z,17.40
2023-05-06T18:58:19.145Z,17.40
2023-05-06T19:00:47.693Z,17.40
2023-05-06T19:03:15.853Z,17.30
2023-05-06T19:05:45.137Z,17.40
2023-05-06T19:08:13.638Z,17.30
2023-05-06T19:10:41.765Z,17.30
2023-05-06T19:13:09.800Z,17.30
2023-05-06T19:15:37.683Z,17.30
2023-05-06T19:18:05.907Z,17.20
2023-05-06T19:20:34.995Z,17.30
2023-05-06T19:23:04.883Z,17.20
2023-05-06T19:25:33.267Z,17.10
2023-05-06T19:28:01.140Z,16.90
2023-05-06T19:30:32.785Z,16.80
2023-05-06T19:33:01.444Z,16.80
2023-05-06T19:35:29.413Z,16.80
2023-05-06T19:37:57.280Z,16.60
2023-05-06T19:40:26.663Z,16.60
2023-05-06T19:42:55.067Z,16.40
2023-05-06T19:45:23.151Z,16.40
2023-05-06T19:47:51.090Z,16.40
2023-05-06T19:50:19.497Z,16.30
2023-05-06T19:52:47.377Z,16.20
2023-05-06T19:55:15.546Z,16.20
2023-05-06T19:57:45.375Z,16.10
2023-05-06T20:00:14.575Z,16.00
2023-05-06T20:02:42.428Z,15.90
2023-05-06T20:05:11.032Z,15.90
2023-05-06T20:07:39.361Z,15.90
2023-05-06T20:10:10.146Z,15.80
2023-05-06T20:12:38.345Z,15.70
2023-05-06T20:15:09.338Z,15.70
2023-05-06T20:17:37.404Z,15.50
2023-05-06T20:20:09.657Z,15.40
2023-05-06T20:22:37.841Z,15.50
2023-05-06T20:25:10.776Z,15.40
2023-05-06T20:27:39.087Z,15.40
2023-05-06T20:30:10.738Z,15.40
2023-05-06T20:32:39.226Z,15.30
2023-05-06T20:35:08.175Z,15.20
2023-05-06T20:37:36.813Z,15.10
2023-05-06T20:40:06.538Z,15.10
2023-05-06T20:42:34.866Z,15.20
2023-05-06T20:45:03.277Z,15.10
2023-05-06T20:47:32.632Z,15.10
2023-05-06T20:50:00.445Z,15.00
2023-05-06T20:52:28.282Z,15.10
2023-05-06T20:54:56.118Z,15.00
2023-05-06T20:57:24.581Z,15.00
2023-05-06T20:59:52.539Z,15.00
2023-05-06T21:02:20.667Z,15.00
2023-05-06T21:04:49.837Z,15.00
2023-05-06T21:07:18.065Z,15.00
2023-05-06T21:09:46.192Z,14.90
2023-05-06T22:17:12.448Z,14.70
2023-05-06T22:19:41.602Z,14.70
2023-05-06T22:22:09.890Z,14.70
2023-05-06T22:24:37.798Z,14.60
2023-05-06T22:27:05.789Z,14.60
2023-05-06T22:29:34.878Z,14.70
2023-05-06T22:32:03.349Z,14.60
2023-05-06T22:34:32.820Z,14.60
2023-05-06T22:37:01.273Z,14.60
2023-05-06T22:39:29.564Z,14.60
2023-05-06T22:41:57.469Z,14.60
2023-05-06T22:44:25.374Z,14.60
2023-05-06T22:46:53.280Z,14.50
2023-05-06T22:49:21.173Z,14.40
2023-05-06T22:51:50.514Z,14.50
2023-05-06T22:54:18.551Z,14.50
2023-05-06T22:56:46.601Z,14.50
2023-05-06T22:59:14.513Z,14.50
2023-05-06T23:01:42.609Z,14.50
2023-05-06T23:04:11.115Z,14.40
2023-05-06T23:06:39.947Z,14.40
2023-05-06T23:09:09.413Z,14.40
2023-05-06T23:11:37.372Z,14.40
2023-05-06T23:14:06.495Z,14.40
2023-05-06T23:16:34.508Z,14.40
2023-05-06T23:19:02.471Z,14.40
2023-05-06T23:21:30.417Z,14.40
2023-05-06T23:23:58.296Z,14.30
2023-05-06T23:26:28.077Z,14.40
2023-05-06T23:28:56.020Z,14.40
2023-05-06T23:31:23.993Z,14.30
2023-05-06T23:33:51.959Z,14.40
2023-05-06T23:36:19.976Z,14.40
2023-05-06T23:38:47.846Z,14.40
2023-05-06T23:41:15.756Z,14.30
2023-05-06T23:43:45.023Z,14.30
2023-05-06T23:46:12.996Z,14.30
2023-05-06T23:48:40.898Z,14.30
2023-05-06T23:51:08.810Z,14.30
2023-05-06T23:53:37.243Z,14.40
2023-05-06T23:56:05.654Z,14.40
2023-05-06T23:58:33.537Z,14.40
